sensor_id;sensor_type;location;lat;lon;timestamp;temperature;humidity
10692;DHT22;5396;50.950;6.988;2023-11-21T00:00:09;8.60;99.90
10692;DHT22;5396;50.950;6.988;2023-11-21T00:02:37;8.60;99.90
10692;DHT22;5396;50.950;6.988;2023-11-21T00:05:06;8.60;99.90
10692;DHT22;5396;50.950;6.988;2023-11-21T00:07:33;8.60;99.90
10692;DHT22;5396;50.950;6.988;2023-11-21T00:09:59;8.60;99.90
10692;DHT22;5396;50.950;6.988;2023-11-21T00:12:24;8.60;99.90
10692;DHT22;5396;50.950;6.988;2023-11-21T00:14:50;8.60;99.90
10692;DHT22;5396;50.950;6.988;2023-11-21T00:17:15;8.60;99.90
10692;DHT22;5396;50.950;6.988;2023-11-21T00:19:41;8.60;99.90
10692;DHT22;5396;50.950;6.988;2023-11-21T00:22:08;8.60;99.90
10692;DHT22;5396;50.950;6.988;2023-11-21T00:24:34;8.60;99.90
10692;DHT22;5396;50.950;6.988;2023-11-21T00:27:00;8.70;99.90
10692;DHT22;5396;50.950;6.988;2023-11-21T00:29:25;8.70;99.90
10692;DHT22;5396;50.950;6.988;2023-11-21T00:31:51;8.70;99.90
10692;DHT22;5396;50.950;6.988;2023-11-21T00:34:16;8.70;99.90
10692;DHT22;5396;50.950;6.988;2023-11-21T00:36:42;8.70;99.90
10692;DHT22;5396;50.950;6.988;2023-11-21T00:39:07;8.70;99.90
10692;DHT22;5396;50.950;6.988;2023-11-21T00:41:33;8.70;99.90
10692;DHT22;5396;50.950;6.988;2023-11-21T00:43:59;8.70;99.90
10692;DHT22;5396;50.950;6.988;2023-11-21T00:46:26;8.80;99.90
10692;DHT22;5396;50.950;6.988;2023-11-21T00:48:54;8.80;99.90
10692;DHT22;5396;50.950;6.988;2023-11-21T00:51:20;8.70;99.90
10692;DHT22;5396;50.950;6.988;2023-11-21T00:53:45;8.70;99.90
10692;DHT22;5396;50.950;6.988;2023-11-21T00:56:11;8.70;99.90
10692;DHT22;5396;50.950;6.988;2023-11-21T00:58:37;8.70;99.90
10692;DHT22;5396;50.950;6.988;2023-11-21T01:01:02;8.70;99.90
10692;DHT22;5396;50.950;6.988;2023-11-21T01:03:28;8.70;99.90
10692;DHT22;5396;50.950;6.988;2023-11-21T01:05:54;8.70;99.90
10692;DHT22;5396;50.950;6.988;2023-11-21T01:08:19;8.60;99.90
10692;DHT22;5396;50.950;6.988;2023-11-21T01:10:45;8.60;99.90
10692;DHT22;5396;50.950;6.988;2023-11-21T01:13:10;8.50;99.90
10692;DHT22;5396;50.950;6.988;2023-11-21T01:15:36;8.40;99.90
10692;DHT22;5396;50.950;6.988;2023-11-21T01:18:01;8.20;99.90
10692;DHT22;5396;50.950;6.988;2023-11-21T01:20:28;8.20;99.90
10692;DHT22;5396;50.950;6.988;2023-11-21T01:22:54;8.20;99.90
10692;DHT22;5396;50.950;6.988;2023-11-21T01:25:20;8.20;99.90
10692;DHT22;5396;50.950;6.988;2023-11-21T01:27:46;8.30;99.90
10692;DHT22;5396;50.950;6.988;2023-11-21T01:30:12;8.30;99.90
10692;DHT22;5396;50.950;6.988;2023-11-21T01:32:38;8.40;99.90
10692;DHT22;5396;50.950;6.988;2023-11-21T01:35:04;8.40;99.90
10692;DHT22;5396;50.950;6.988;2023-11-21T01:37:31;8.50;99.90
10692;DHT22;5396;50.950;6.988;2023-11-21T01:39:57;8.50;99.90
10692;DHT22;5396;50.950;6.988;2023-11-21T01:42:22;8.60;99.90
10692;DHT22;5396;50.950;6.988;2023-11-21T01:44:48;8.60;99.90
10692;DHT22;5396;50.950;6.988;2023-11-21T01:47:14;8.60;99.90
10692;DHT22;5396;50.950;6.988;2023-11-21T01:49:42;8.50;99.90
10692;DHT22;5396;50.950;6.988;2023-11-21T01:52:08;8.50;99.90
10692;DHT22;5396;50.950;6.988;2023-11-21T01:54:36;8.40;99.90
10692;DHT22;5396;50.950;6.988;2023-11-21T01:57:02;8.40;99.90
10692;DHT22;5396;50.950;6.988;2023-11-21T01:59:34;8.30;99.90
10692;DHT22;5396;50.950;6.988;2023-11-21T02:01:59;8.30;99.90
10692;DHT22;5396;50.950;6.988;2023-11-21T02:04:25;8.30;99.90
10692;DHT22;5396;50.950;6.988;2023-11-21T02:06:50;8.30;99.90
10692;DHT22;5396;50.950;6.988;2023-11-21T02:09:16;8.30;99.90
10692;DHT22;5396;50.950;6.988;2023-11-21T02:11:42;8.20;99.90
10692;DHT22;5396;50.950;6.988;2023-11-21T02:14:09;8.20;99.90
10692;DHT22;5396;50.950;6.988;2023-11-21T02:16:35;8.10;99.90
10692;DHT22;5396;50.950;6.988;2023-11-21T02:19:01;8.00;99.90
10692;DHT22;5396;50.950;6.988;2023-11-21T02:21:28;8.00;99.90
10692;DHT22;5396;50.950;6.988;2023-11-21T02:23:55;8.00;99.90
10692;DHT22;5396;50.950;6.988;2023-11-21T02:26:21;8.00;99.90
10692;DHT22;5396;50.950;6.988;2023-11-21T02:28:46;8.10;99.90
10692;DHT22;5396;50.950;6.988;2023-11-21T02:31:12;8.20;99.90
10692;DHT22;5396;50.950;6.988;2023-11-21T02:33:37;8.20;99.90
10692;DHT22;5396;50.950;6.988;2023-11-21T02:36:03;8.20;99.90
10692;DHT22;5396;50.950;6.988;2023-11-21T02:38:29;8.20;99.90
10692;DHT22;5396;50.950;6.988;2023-11-21T02:40:55;8.30;99.90
10692;DHT22;5396;50.950;6.988;2023-11-21T02:43:20;8.30;99.90
10692;DHT22;5396;50.950;6.988;2023-11-21T02:45:46;8.30;99.90
10692;DHT22;5396;50.950;6.988;2023-11-21T02:48:11;8.30;99.90
10692;DHT22;5396;50.950;6.988;2023-11-21T02:50:37;8.40;99.90
10692;DHT22;5396;50.950;6.988;2023-11-21T02:53:03;8.40;99.90
10692;DHT22;5396;50.950;6.988;2023-11-21T02:55:29;8.40;99.90
10692;DHT22;5396;50.950;6.988;2023-11-21T02:57:56;8.50;99.90
10692;DHT22;5396;50.950;6.988;2023-11-21T03:00:24;8.50;99.90
10692;DHT22;5396;50.950;6.988;2023-11-21T03:02:51;8.50;99.90
10692;DHT22;5396;50.950;6.988;2023-11-21T03:05:17;8.60;99.90
10692;DHT22;5396;50.950;6.988;2023-11-21T03:07:42;8.60;99.90
10692;DHT22;5396;50.950;6.988;2023-11-21T03:10:08;8.60;99.90
10692;DHT22;5396;50.950;6.988;2023-11-21T03:12:34;8.60;99.90
10692;DHT22;5396;50.950;6.988;2023-11-21T03:15:00;8.60;99.90
10692;DHT22;5396;50.950;6.988;2023-11-21T03:17:27;8.60;99.90
10692;DHT22;5396;50.950;6.988;2023-11-21T03:19:52;8.70;99.90
10692;DHT22;5396;50.950;6.988;2023-11-21T03:22:18;8.60;99.90
10692;DHT22;5396;50.950;6.988;2023-11-21T03:24:44;8.60;99.90
10692;DHT22;5396;50.950;6.988;2023-11-21T03:27:10;8.60;99.90
10692;DHT22;5396;50.950;6.988;2023-11-21T03:29:35;8.60;99.90
10692;DHT22;5396;50.950;6.988;2023-11-21T03:32:00;8.60;99.90
10692;DHT22;5396;50.950;6.988;2023-11-21T03:34:27;8.60;99.90
10692;DHT22;5396;50.950;6.988;2023-11-21T03:36:53;8.60;99.90
10692;DHT22;5396;50.950;6.988;2023-11-21T03:39:21;8.60;99.90
10692;DHT22;5396;50.950;6.988;2023-11-21T03:41:47;8.60;99.90
10692;DHT22;5396;50.950;6.988;2023-11-21T03:44:13;8.60;99.90
10692;DHT22;5396;50.950;6.988;2023-11-21T03:46:39;8.50;99.90
10692;DHT22;5396;50.950;6.988;2023-11-21T03:49:04;8.60;99.90
10692;DHT22;5396;50.950;6.988;2023-11-21T03:51:30;8.50;99.90
10692;DHT22;5396;50.950;6.988;2023-11-21T03:53:55;8.50;99.90
10692;DHT22;5396;50.950;6.988;2023-11-21T03:56:21;8.50;99.90
10692;DHT22;5396;50.950;6.988;2023-11-21T03:58:49;8.50;99.90
10692;DHT22;5396;50.950;6.988;2023-11-21T04:01:21;8.50;99.90
10692;DHT22;5396;50.950;6.988;2023-11-21T04:03:47;8.40;99.90
10692;DHT22;5396;50.950;6.988;2023-11-21T04:06:12;8.40;99.90
10692;DHT22;5396;50.950;6.988;2023-11-21T04:08:38;8.40;99.90
10692;DHT22;5396;50.950;6.988;2023-11-21T04:11:03;8.40;99.90
10692;DHT22;5396;50.950;6.988;2023-11-21T04:13:29;8.40;99.90
10692;DHT22;5396;50.950;6.988;2023-11-21T04:15:56;8.40;99.90
10692;DHT22;5396;50.950;6.988;2023-11-21T04:18:21;8.40;99.90
10692;DHT22;5396;50.950;6.988;2023-11-21T04:20:48;8.40;99.90
10692;DHT22;5396;50.950;6.988;2023-11-21T04:23:14;8.40;99.90
10692;DHT22;5396;50.950;6.988;2023-11-21T04:25:40;8.40;99.90
10692;DHT22;5396;50.950;6.988;2023-11-21T04:28:06;8.40;99.90
10692;DHT22;5396;50.950;6.988;2023-11-21T04:30:31;8.40;99.90
10692;DHT22;5396;50.950;6.988;2023-11-21T04:32:58;8.40;99.90
10692;DHT22;5396;50.950;6.988;2023-11-21T04:35:23;8.40;99.90
10692;DHT22;5396;50.950;6.988;2023-11-21T04:37:49;8.40;99.90
10692;DHT22;5396;50.950;6.988;2023-11-21T04:40:16;8.40;99.90
10692;DHT22;5396;50.950;6.988;2023-11-21T04:42:41;8.40;99.90
10692;DHT22;5396;50.950;6.988;2023-11-21T04:45:07;8.40;99.90
10692;DHT22;5396;50.950;6.988;2023-11-21T04:47:37;8.40;99.90
10692;DHT22;5396;50.950;6.988;2023-11-21T04:50:02;8.40;99.90
10692;DHT22;5396;50.950;6.988;2023-11-21T04:52:28;8.40;99.90
10692;DHT22;5396;50.950;6.988;2023-11-21T04:54:54;8.30;99.90
10692;DHT22;5396;50.950;6.988;2023-11-21T04:57:20;8.30;99.90
10692;DHT22;5396;50.950;6.988;2023-11-21T04:59:48;8.30;99.90
10692;DHT22;5396;50.950;6.988;2023-11-21T05:02:13;8.30;99.90
10692;DHT22;5396;50.950;6.988;2023-11-21T05:04:39;8.20;99.90
10692;DHT22;5396;50.950;6.988;2023-11-21T05:07:04;8.20;99.90
10692;DHT22;5396;50.950;6.988;2023-11-21T05:09:30;8.20;99.90
10692;DHT22;5396;50.950;6.988;2023-11-21T05:11:57;8.10;99.90
10692;DHT22;5396;50.950;6.988;2023-11-21T05:14:23;8.10;99.90
10692;DHT22;5396;50.950;6.988;2023-11-21T05:16:48;8.10;99.90
10692;DHT22;5396;50.950;6.988;2023-11-21T05:19:16;8.10;99.90
10692;DHT22;5396;50.950;6.988;2023-11-21T05:21:41;8.10;99.90
10692;DHT22;5396;50.950;6.988;2023-11-21T05:24:07;8.10;99.90
10692;DHT22;5396;50.950;6.988;2023-11-21T05:26:32;8.10;99.90
10692;DHT22;5396;50.950;6.988;2023-11-21T05:28:58;8.20;99.90
10692;DHT22;5396;50.950;6.988;2023-11-21T05:31:23;8.20;99.90
10692;DHT22;5396;50.950;6.988;2023-11-21T05:33:49;8.20;99.90
10692;DHT22;5396;50.950;6.988;2023-11-21T05:36:14;8.20;99.90
10692;DHT22;5396;50.950;6.988;2023-11-21T05:38:40;8.20;99.90
10692;DHT22;5396;50.950;6.988;2023-11-21T05:41:06;8.20;99.90
10692;DHT22;5396;50.950;6.988;2023-11-21T05:43:33;8.20;99.90
10692;DHT22;5396;50.950;6.988;2023-11-21T05:46:00;8.30;99.90
10692;DHT22;5396;50.950;6.988;2023-11-21T05:48:26;8.30;99.90
10692;DHT22;5396;50.950;6.988;2023-11-21T05:50:52;8.20;99.90
10692;DHT22;5396;50.950;6.988;2023-11-21T05:53:17;8.30;99.90
10692;DHT22;5396;50.950;6.988;2023-11-21T05:55:43;8.30;99.90
10692;DHT22;5396;50.950;6.988;2023-11-21T05:58:08;8.30;99.90
10692;DHT22;5396;50.950;6.988;2023-11-21T06:00:34;8.30;99.90
10692;DHT22;5396;50.950;6.988;2023-11-21T06:03:00;8.30;99.90
10692;DHT22;5396;50.950;6.988;2023-11-21T06:05:25;8.30;99.90
10692;DHT22;5396;50.950;6.988;2023-11-21T06:07:52;8.30;99.90
10692;DHT22;5396;50.950;6.988;2023-11-21T06:10:19;8.30;99.90
10692;DHT22;5396;50.950;6.988;2023-11-21T06:12:45;8.30;99.90
10692;DHT22;5396;50.950;6.988;2023-11-21T06:15:10;8.30;99.90
10692;DHT22;5396;50.950;6.988;2023-11-21T06:17:38;8.30;99.90
10692;DHT22;5396;50.950;6.988;2023-11-21T06:20:05;8.30;99.90
10692;DHT22;5396;50.950;6.988;2023-11-21T06:22:35;8.40;99.90
10692;DHT22;5396;50.950;6.988;2023-11-21T06:25:01;8.40;99.90
10692;DHT22;5396;50.950;6.988;2023-11-21T06:27:27;8.30;99.90
10692;DHT22;5396;50.950;6.988;2023-11-21T06:29:53;8.40;99.90
10692;DHT22;5396;50.950;6.988;2023-11-21T06:32:18;8.40;99.90
10692;DHT22;5396;50.950;6.988;2023-11-21T06:34:45;8.40;99.90
10692;DHT22;5396;50.950;6.988;2023-11-21T06:37:11;8.40;99.90
10692;DHT22;5396;50.950;6.988;2023-11-21T06:39:37;8.40;99.90
10692;DHT22;5396;50.950;6.988;2023-11-21T06:42:03;8.40;99.90
10692;DHT22;5396;50.950;6.988;2023-11-21T06:44:29;8.50;99.90
10692;DHT22;5396;50.950;6.988;2023-11-21T06:46:55;8.50;99.90
10692;DHT22;5396;50.950;6.988;2023-11-21T06:49:20;8.50;99.90
10692;DHT22;5396;50.950;6.988;2023-11-21T06:51:46;8.40;99.90
10692;DHT22;5396;50.950;6.988;2023-11-21T06:54:12;8.50;99.90
10692;DHT22;5396;50.950;6.988;2023-11-21T06:56:37;8.50;99.90
10692;DHT22;5396;50.950;6.988;2023-11-21T06:59:04;8.50;99.90
10692;DHT22;5396;50.950;6.988;2023-11-21T07:01:31;8.40;99.90
10692;DHT22;5396;50.950;6.988;2023-11-21T07:03:59;8.40;99.90
10692;DHT22;5396;50.950;6.988;2023-11-21T07:06:25;8.40;99.90
10692;DHT22;5396;50.950;6.988;2023-11-21T07:08:50;8.50;99.90
10692;DHT22;5396;50.950;6.988;2023-11-21T07:11:16;8.40;99.90
10692;DHT22;5396;50.950;6.988;2023-11-21T07:13:42;8.50;99.90
10692;DHT22;5396;50.950;6.988;2023-11-21T07:16:07;8.50;99.90
10692;DHT22;5396;50.950;6.988;2023-11-21T07:18:33;8.50;99.90
10692;DHT22;5396;50.950;6.988;2023-11-21T07:20:59;8.50;99.90
10692;DHT22;5396;50.950;6.988;2023-11-21T07:23:24;8.50;99.90
10692;DHT22;5396;50.950;6.988;2023-11-21T07:25:49;8.60;99.90
10692;DHT22;5396;50.950;6.988;2023-11-21T07:28:15;8.60;99.90
10692;DHT22;5396;50.950;6.988;2023-11-21T07:30:41;8.60;99.90
10692;DHT22;5396;50.950;6.988;2023-11-21T07:33:06;8.70;99.90
10692;DHT22;5396;50.950;6.988;2023-11-21T07:35:32;8.70;99.90
10692;DHT22;5396;50.950;6.988;2023-11-21T07:37:58;8.70;99.90
10692;DHT22;5396;50.950;6.988;2023-11-21T07:40:23;8.70;99.90
10692;DHT22;5396;50.950;6.988;2023-11-21T07:42:49;8.80;99.90
10692;DHT22;5396;50.950;6.988;2023-11-21T07:45:15;8.80;99.90
10692;DHT22;5396;50.950;6.988;2023-11-21T07:47:40;8.80;99.90
10692;DHT22;5396;50.950;6.988;2023-11-21T07:50:06;8.80;99.90
10692;DHT22;5396;50.950;6.988;2023-11-21T07:52:32;8.90;99.90
10692;DHT22;5396;50.950;6.988;2023-11-21T07:54:58;8.90;99.90
10692;DHT22;5396;50.950;6.988;2023-11-21T07:57:24;9.00;99.90
10692;DHT22;5396;50.950;6.988;2023-11-21T07:59:49;9.00;99.90
10692;DHT22;5396;50.950;6.988;2023-11-21T08:02:15;9.00;99.90
10692;DHT22;5396;50.950;6.988;2023-11-21T08:04:42;9.00;99.90
10692;DHT22;5396;50.950;6.988;2023-11-21T08:07:08;9.00;99.90
10692;DHT22;5396;50.950;6.988;2023-11-21T08:09:35;9.00;99.90
10692;DHT22;5396;50.950;6.988;2023-11-21T08:12:00;9.00;99.90
10692;DHT22;5396;50.950;6.988;2023-11-21T08:14:27;9.10;99.90
10692;DHT22;5396;50.950;6.988;2023-11-21T08:16:53;9.10;99.90
10692;DHT22;5396;50.950;6.988;2023-11-21T08:19:23;9.20;99.90
10692;DHT22;5396;50.950;6.988;2023-11-21T08:21:50;9.20;99.90
10692;DHT22;5396;50.950;6.988;2023-11-21T08:24:16;9.20;99.90
10692;DHT22;5396;50.950;6.988;2023-11-21T08:26:41;9.30;99.90
10692;DHT22;5396;50.950;6.988;2023-11-21T08:29:07;9.30;99.90
10692;DHT22;5396;50.950;6.988;2023-11-21T08:31:32;9.30;99.90
10692;DHT22;5396;50.950;6.988;2023-11-21T08:33:58;9.20;99.90
10692;DHT22;5396;50.950;6.988;2023-11-21T08:36:24;9.20;99.90
10692;DHT22;5396;50.950;6.988;2023-11-21T08:38:50;9.20;99.90
10692;DHT22;5396;50.950;6.988;2023-11-21T08:41:17;9.30;99.90
10692;DHT22;5396;50.950;6.988;2023-11-21T08:43:43;9.30;99.90
10692;DHT22;5396;50.950;6.988;2023-11-21T08:46:08;9.30;99.90
10692;DHT22;5396;50.950;6.988;2023-11-21T08:48:35;9.40;99.90
10692;DHT22;5396;50.950;6.988;2023-11-21T08:51:01;9.40;99.90
10692;DHT22;5396;50.950;6.988;2023-11-21T08:53:26;9.30;99.90
10692;DHT22;5396;50.950;6.988;2023-11-21T08:55:52;9.30;99.90
10692;DHT22;5396;50.950;6.988;2023-11-21T08:58:19;9.30;99.90
10692;DHT22;5396;50.950;6.988;2023-11-21T09:00:44;9.30;99.90
10692;DHT22;5396;50.950;6.988;2023-11-21T09:03:11;9.40;99.90
10692;DHT22;5396;50.950;6.988;2023-11-21T09:05:37;9.40;99.90
10692;DHT22;5396;50.950;6.988;2023-11-21T09:08:04;9.40;99.90
10692;DHT22;5396;50.950;6.988;2023-11-21T09:10:29;9.50;99.90
10692;DHT22;5396;50.950;6.988;2023-11-21T09:12:55;9.50;99.90
10692;DHT22;5396;50.950;6.988;2023-11-21T09:15:20;9.50;99.90
10692;DHT22;5396;50.950;6.988;2023-11-21T09:17:46;9.50;99.90
10692;DHT22;5396;50.950;6.988;2023-11-21T09:20:11;9.60;99.90
10692;DHT22;5396;50.950;6.988;2023-11-21T09:22:37;9.60;99.90
10692;DHT22;5396;50.950;6.988;2023-11-21T09:25:03;9.70;99.90
10692;DHT22;5396;50.950;6.988;2023-11-21T09:27:32;9.70;99.90
10692;DHT22;5396;50.950;6.988;2023-11-21T09:29:57;9.80;99.90
10692;DHT22;5396;50.950;6.988;2023-11-21T09:32:23;9.80;99.90
10692;DHT22;5396;50.950;6.988;2023-11-21T09:34:49;9.80;99.90
10692;DHT22;5396;50.950;6.988;2023-11-21T09:37:15;9.80;99.90
10692;DHT22;5396;50.950;6.988;2023-11-21T09:39:41;9.90;99.90
10692;DHT22;5396;50.950;6.988;2023-11-21T09:44:35;9.90;99.90
10692;DHT22;5396;50.950;6.988;2023-11-21T09:47:02;9.90;99.90
10692;DHT22;5396;50.950;6.988;2023-11-21T09:49:28;10.00;99.90
10692;DHT22;5396;50.950;6.988;2023-11-21T09:51:57;10.00;99.90
10692;DHT22;5396;50.950;6.988;2023-11-21T09:54:23;9.90;99.90
10692;DHT22;5396;50.950;6.988;2023-11-21T09:56:49;10.00;99.90
10692;DHT22;5396;50.950;6.988;2023-11-21T09:59:15;10.00;99.90
10692;DHT22;5396;50.950;6.988;2023-11-21T10:01:41;10.00;99.90
10692;DHT22;5396;50.950;6.988;2023-11-21T10:04:07;10.00;99.90
10692;DHT22;5396;50.950;6.988;2023-11-21T10:06:40;10.00;99.90
10692;DHT22;5396;50.950;6.988;2023-11-21T10:09:11;9.90;99.90
10692;DHT22;5396;50.950;6.988;2023-11-21T10:11:40;9.90;99.90
10692;DHT22;5396;50.950;6.988;2023-11-21T10:14:08;9.90;99.90
10692;DHT22;5396;50.950;6.988;2023-11-21T10:16:35;10.00;99.90
10692;DHT22;5396;50.950;6.988;2023-11-21T10:19:02;10.00;99.90
10692;DHT22;5396;50.950;6.988;2023-11-21T10:21:28;10.00;99.90
10692;DHT22;5396;50.950;6.988;2023-11-21T10:23:54;9.90;99.90
10692;DHT22;5396;50.950;6.988;2023-11-21T10:26:20;10.00;99.90
10692;DHT22;5396;50.950;6.988;2023-11-21T10:28:55;10.00;99.90
10692;DHT22;5396;50.950;6.988;2023-11-21T10:31:23;10.00;99.90
10692;DHT22;5396;50.950;6.988;2023-11-21T10:33:50;10.00;99.90
10692;DHT22;5396;50.950;6.988;2023-11-21T10:36:28;10.00;99.90
10692;DHT22;5396;50.950;6.988;2023-11-21T10:38:53;10.00;99.90
10692;DHT22;5396;50.950;6.988;2023-11-21T10:41:20;10.00;99.90
10692;DHT22;5396;50.950;6.988;2023-11-21T10:43:45;9.90;99.90
10692;DHT22;5396;50.950;6.988;2023-11-21T10:46:11;9.90;99.90
10692;DHT22;5396;50.950;6.988;2023-11-21T10:48:37;9.90;99.90
10692;DHT22;5396;50.950;6.988;2023-11-21T10:51:07;9.90;99.90
10692;DHT22;5396;50.950;6.988;2023-11-21T10:53:33;9.90;99.90
10692;DHT22;5396;50.950;6.988;2023-11-21T10:56:02;9.90;99.90
10692;DHT22;5396;50.950;6.988;2023-11-21T10:58:30;9.90;99.90
10692;DHT22;5396;50.950;6.988;2023-11-21T11:00:57;10.00;99.90
10692;DHT22;5396;50.950;6.988;2023-11-21T11:03:23;10.10;99.90
10692;DHT22;5396;50.950;6.988;2023-11-21T11:05:49;10.20;99.90
10692;DHT22;5396;50.950;6.988;2023-11-21T11:08:21;10.30;99.90
10692;DHT22;5396;50.950;6.988;2023-11-21T11:10:51;10.30;99.90
10692;DHT22;5396;50.950;6.988;2023-11-21T11:13:18;10.20;99.90
10692;DHT22;5396;50.950;6.988;2023-11-21T11:15:46;10.30;99.90
10692;DHT22;5396;50.950;6.988;2023-11-21T11:18:12;10.40;99.90
10692;DHT22;5396;50.950;6.988;2023-11-21T11:20:39;10.40;99.90
10692;DHT22;5396;50.950;6.988;2023-11-21T11:28:31;10.30;99.90
10692;DHT22;5396;50.950;6.988;2023-11-21T11:31:05;10.40;99.90
10692;DHT22;5396;50.950;6.988;2023-11-21T11:33:39;10.40;99.90
10692;DHT22;5396;50.950;6.988;2023-11-21T11:36:10;10.40;99.90
10692;DHT22;5396;50.950;6.988;2023-11-21T11:38:38;10.30;99.90
10692;DHT22;5396;50.950;6.988;2023-11-21T11:41:04;10.30;99.90
10692;DHT22;5396;50.950;6.988;2023-11-21T11:43:30;10.30;99.90
10692;DHT22;5396;50.950;6.988;2023-11-21T11:46:07;10.30;99.90
10692;DHT22;5396;50.950;6.988;2023-11-21T11:48:34;10.30;99.90
10692;DHT22;5396;50.950;6.988;2023-11-21T11:51:01;10.30;99.90
10692;DHT22;5396;50.950;6.988;2023-11-21T11:53:32;10.30;99.90
10692;DHT22;5396;50.950;6.988;2023-11-21T11:58:42;10.40;99.90
10692;DHT22;5396;50.950;6.988;2023-11-21T12:01:08;10.50;99.90
10692;DHT22;5396;50.950;6.988;2023-11-21T12:03:33;10.60;99.90
10692;DHT22;5396;50.950;6.988;2023-11-21T12:06:03;10.60;99.90
10692;DHT22;5396;50.950;6.988;2023-11-21T12:08:28;10.70;99.90
10692;DHT22;5396;50.950;6.988;2023-11-21T12:10:56;10.80;99.90
10692;DHT22;5396;50.950;6.988;2023-11-21T12:13:22;10.90;99.90
10692;DHT22;5396;50.950;6.988;2023-11-21T12:15:48;10.80;99.90
10692;DHT22;5396;50.950;6.988;2023-11-21T12:18:14;10.70;99.90
10692;DHT22;5396;50.950;6.988;2023-11-21T12:20:39;10.50;99.90
10692;DHT22;5396;50.950;6.988;2023-11-21T12:23:06;10.40;99.90
10692;DHT22;5396;50.950;6.988;2023-11-21T12:25:34;10.30;99.90
10692;DHT22;5396;50.950;6.988;2023-11-21T12:28:02;10.20;99.90
10692;DHT22;5396;50.950;6.988;2023-11-21T12:30:29;10.10;99.90
10692;DHT22;5396;50.950;6.988;2023-11-21T12:32:56;10.10;99.90
10692;DHT22;5396;50.950;6.988;2023-11-21T12:35:30;10.10;99.90
10692;DHT22;5396;50.950;6.988;2023-11-21T12:37:56;10.10;99.90
10692;DHT22;5396;50.950;6.988;2023-11-21T12:40:24;10.00;99.90
10692;DHT22;5396;50.950;6.988;2023-11-21T12:42:58;10.10;99.90
10692;DHT22;5396;50.950;6.988;2023-11-21T12:45:28;10.10;99.90
10692;DHT22;5396;50.950;6.988;2023-11-21T12:50:25;10.10;99.90
10692;DHT22;5396;50.950;6.988;2023-11-21T12:52:54;10.10;99.90
10692;DHT22;5396;50.950;6.988;2023-11-21T12:55:23;10.10;99.90
10692;DHT22;5396;50.950;6.988;2023-11-21T12:57:49;10.10;99.90
10692;DHT22;5396;50.950;6.988;2023-11-21T13:00:17;10.10;99.90
10692;DHT22;5396;50.950;6.988;2023-11-21T13:02:55;10.10;99.90
10692;DHT22;5396;50.950;6.988;2023-11-21T13:05:30;10.10;99.90
10692;DHT22;5396;50.950;6.988;2023-11-21T13:07:57;10.10;99.90
10692;DHT22;5396;50.950;6.988;2023-11-21T13:10:23;10.10;99.90
10692;DHT22;5396;50.950;6.988;2023-11-21T13:13:02;10.20;99.90
10692;DHT22;5396;50.950;6.988;2023-11-21T13:15:30;10.20;99.90
10692;DHT22;5396;50.950;6.988;2023-11-21T13:17:56;10.10;99.90
10692;DHT22;5396;50.950;6.988;2023-11-21T13:20:26;10.10;99.90
10692;DHT22;5396;50.950;6.988;2023-11-21T13:22:54;10.20;99.90
10692;DHT22;5396;50.950;6.988;2023-11-21T13:25:27;10.30;99.90
10692;DHT22;5396;50.950;6.988;2023-11-21T13:27:53;10.40;99.90
10692;DHT22;5396;50.950;6.988;2023-11-21T13:30:19;10.60;99.90
10692;DHT22;5396;50.950;6.988;2023-11-21T13:32:51;10.70;99.90
10692;DHT22;5396;50.950;6.988;2023-11-21T13:35:17;10.70;99.90
10692;DHT22;5396;50.950;6.988;2023-11-21T13:38:02;10.70;99.90
10692;DHT22;5396;50.950;6.988;2023-11-21T13:40:28;10.60;99.90
10692;DHT22;5396;50.950;6.988;2023-11-21T13:42:54;10.60;99.90
10692;DHT22;5396;50.950;6.988;2023-11-21T13:45:20;10.70;99.90
10692;DHT22;5396;50.950;6.988;2023-11-21T13:47:48;10.60;99.90
10692;DHT22;5396;50.950;6.988;2023-11-21T13:50:16;10.60;99.90
10692;DHT22;5396;50.950;6.988;2023-11-21T13:52:47;10.60;99.90
10692;DHT22;5396;50.950;6.988;2023-11-21T13:55:13;10.60;99.90
10692;DHT22;5396;50.950;6.988;2023-11-21T13:57:44;10.50;99.90
10692;DHT22;5396;50.950;6.988;2023-11-21T14:00:15;10.50;99.90
10692;DHT22;5396;50.950;6.988;2023-11-21T14:03:00;10.40;99.90
10692;DHT22;5396;50.950;6.988;2023-11-21T14:05:26;10.40;99.90
10692;DHT22;5396;50.950;6.988;2023-11-21T14:07:57;10.40;99.90
10692;DHT22;5396;50.950;6.988;2023-11-21T14:10:30;10.40;99.90
10692;DHT22;5396;50.950;6.988;2023-11-21T14:13:09;10.40;99.90
10692;DHT22;5396;50.950;6.988;2023-11-21T14:15:41;10.40;99.90
10692;DHT22;5396;50.950;6.988;2023-11-21T14:18:08;10.40;99.90
10692;DHT22;5396;50.950;6.988;2023-11-21T14:20:36;10.40;99.90
10692;DHT22;5396;50.950;6.988;2023-11-21T14:23:03;10.40;99.90
10692;DHT22;5396;50.950;6.988;2023-11-21T14:25:29;10.40;99.90
10692;DHT22;5396;50.950;6.988;2023-11-21T14:27:55;10.40;99.90
10692;DHT22;5396;50.950;6.988;2023-11-21T14:30:21;10.40;99.90
10692;DHT22;5396;50.950;6.988;2023-11-21T14:32:48;10.40;99.90
10692;DHT22;5396;50.950;6.988;2023-11-21T14:35:14;10.40;99.90
10692;DHT22;5396;50.950;6.988;2023-11-21T14:37:39;10.50;99.90
10692;DHT22;5396;50.950;6.988;2023-11-21T14:40:05;10.50;99.90
10692;DHT22;5396;50.950;6.988;2023-11-21T14:42:33;10.50;99.90
10692;DHT22;5396;50.950;6.988;2023-11-21T14:44:59;10.50;99.90
10692;DHT22;5396;50.950;6.988;2023-11-21T14:47:29;10.40;99.90
10692;DHT22;5396;50.950;6.988;2023-11-21T14:49:54;10.40;99.90
10692;DHT22;5396;50.950;6.988;2023-11-21T14:52:21;10.40;99.90
10692;DHT22;5396;50.950;6.988;2023-11-21T14:54:58;10.50;99.90
10692;DHT22;5396;50.950;6.988;2023-11-21T14:57:46;10.50;99.90
10692;DHT22;5396;50.950;6.988;2023-11-21T15:00:18;10.40;99.90
10692;DHT22;5396;50.950;6.988;2023-11-21T15:02:58;10.30;99.90
10692;DHT22;5396;50.950;6.988;2023-11-21T15:05:23;10.30;99.90
10692;DHT22;5396;50.950;6.988;2023-11-21T15:07:50;10.20;99.90
10692;DHT22;5396;50.950;6.988;2023-11-21T15:10:20;10.10;99.90
10692;DHT22;5396;50.950;6.988;2023-11-21T15:12:54;10.00;99.90
10692;DHT22;5396;50.950;6.988;2023-11-21T15:15:19;9.90;99.90
10692;DHT22;5396;50.950;6.988;2023-11-21T15:17:46;9.90;99.90
10692;DHT22;5396;50.950;6.988;2023-11-21T15:20:12;9.80;99.90
10692;DHT22;5396;50.950;6.988;2023-11-21T15:22:44;9.80;99.90
10692;DHT22;5396;50.950;6.988;2023-11-21T15:25:10;9.80;99.90
10692;DHT22;5396;50.950;6.988;2023-11-21T15:27:35;9.80;99.90
10692;DHT22;5396;50.950;6.988;2023-11-21T15:30:02;9.70;99.90
10692;DHT22;5396;50.950;6.988;2023-11-21T15:32:28;9.70;99.90
10692;DHT22;5396;50.950;6.988;2023-11-21T15:34:54;9.70;99.90
10692;DHT22;5396;50.950;6.988;2023-11-21T15:37:19;9.70;99.90
10692;DHT22;5396;50.950;6.988;2023-11-21T15:39:45;9.70;99.90
10692;DHT22;5396;50.950;6.988;2023-11-21T15:42:11;9.70;99.90
10692;DHT22;5396;50.950;6.988;2023-11-21T15:44:37;9.70;99.90
10692;DHT22;5396;50.950;6.988;2023-11-21T15:47:03;9.70;99.90
10692;DHT22;5396;50.950;6.988;2023-11-21T15:49:30;9.70;99.90
10692;DHT22;5396;50.950;6.988;2023-11-21T15:51:59;9.70;99.90
10692;DHT22;5396;50.950;6.988;2023-11-21T15:54:25;9.70;99.90
10692;DHT22;5396;50.950;6.988;2023-11-21T15:56:54;9.70;99.90
10692;DHT22;5396;50.950;6.988;2023-11-21T15:59:23;9.70;99.90
10692;DHT22;5396;50.950;6.988;2023-11-21T16:01:57;9.70;99.90
10692;DHT22;5396;50.950;6.988;2023-11-21T16:04:22;9.70;99.90
10692;DHT22;5396;50.950;6.988;2023-11-21T16:06:48;9.70;99.90